MMOX/OAX METAR and TAF weather

Enter ICAO airport designator
Station Type Date Time Source
MMOX METAR 2020/08/15 00:53 UTC NOAA

MMOX 150053Z 00000KT 10SM SCT050 OVC120 20/14 A3017 RMK 8/52/ BINOVC


Station Type Date Time Source
MMOX Decoded METAR 2020/08/15 00:53 UTC NOAA

Oaxaca / Xoxocotlan, Mexico (MMOX) 16-58N 096-44W
Aug 14, 2020 - 08:53 PM EDT / 2020.08.15 0053 UTC
Wind: Calm:0
Visibility: 10 mile(s):0
Sky conditions: overcast
Temperature: 68 F (20 C)
Dew Point: 57 F (14 C)
Relative Humidity: 68%
Pressure (altimeter): 30.17 in. Hg (1021 hPa)
ob: MMOX 150053Z 00000KT 10SM SCT050 OVC120 20/14 A3017 RMK 8/52/ BINOVC
cycle: 1

Station Type Date Time Source
MMOX TAF 2020/08/15 06:16 UTC NOAA

TAF MMOX 150509Z 1506/1606 00000KT P6SM SCT050 OVC120
FM151600 34005KT P6SM SCT120
FM151900 04010KT P6SM BKN030 BKN120 PROB40 1521/1601 5SM TSRA BKN030CB

Example: see airport list